createdAt,value
2023-03-01T00:01:35.213Z,12.20
2023-03-01T00:04:02.933Z,11.50
2023-03-01T00:06:30.686Z,10.40
2023-03-01T00:08:58.453Z,10.73
2023-03-01T00:11:28.578Z,10.23
2023-03-01T00:13:58.789Z,10.80
2023-03-01T00:16:32.475Z,10.54
2023-03-01T00:19:00.245Z,10.25
2023-03-01T00:21:28.532Z,9.23
2023-03-01T00:23:56.236Z,8.95
2023-03-01T00:26:24.853Z,9.07
2023-03-01T00:28:53.180Z,8.40
2023-03-01T00:31:22.945Z,9.10
2023-03-01T00:33:58.675Z,8.95
2023-03-01T00:36:29.856Z,8.95
2023-03-01T00:38:57.826Z,8.85
2023-03-01T00:41:27.681Z,9.40
2023-03-01T00:43:56.086Z,9.05
2023-03-01T00:46:27.803Z,8.45
2023-03-01T00:48:55.622Z,8.70
2023-03-01T00:51:28.178Z,8.73
2023-03-01T00:53:59.996Z,8.85
2023-03-01T00:56:27.982Z,9.02
2023-03-01T00:58:55.747Z,8.80
2023-03-01T01:01:30.728Z,9.02
2023-03-01T01:04:07.860Z,8.73
2023-03-01T01:06:43.408Z,10.20
2023-03-01T01:09:19.510Z,9.75
2023-03-01T01:11:53.141Z,10.20
2023-03-01T01:14:21.655Z,10.32
2023-03-01T01:16:49.739Z,9.55
2023-03-01T01:19:18.245Z,9.95
2023-03-01T01:21:46.446Z,9.93
2023-03-01T01:24:13.878Z,10.50
2023-03-01T01:26:41.577Z,10.60
2023-03-01T01:29:09.969Z,10.60
2023-03-01T01:31:39.007Z,9.93
2023-03-01T01:34:07.996Z,9.30
2023-03-01T01:36:36.025Z,9.93
2023-03-01T01:39:03.670Z,9.93
2023-03-01T01:41:32.063Z,10.15
2023-03-01T01:44:21.998Z,10.10
2023-03-01T01:47:03.529Z,10.20
2023-03-01T01:49:55.592Z,10.48
2023-03-01T01:52:22.995Z,10.63
2023-03-01T01:55:09.323Z,10.43
2023-03-01T01:57:40.305Z,10.82
2023-03-01T02:00:14.641Z,10.63
2023-03-01T02:02:43.962Z,10.50
2023-03-01T02:05:34.318Z,10.57
2023-03-01T02:08:01.951Z,10.02
2023-03-01T02:10:30.265Z,10.38
2023-03-01T02:12:57.742Z,10.48
2023-03-01T02:15:25.247Z,10.30
2023-03-01T02:17:54.340Z,9.95
2023-03-01T02:20:28.499Z,10.10
2023-03-01T02:22:59.616Z,9.63
2023-03-01T02:25:33.397Z,9.70
2023-03-01T02:28:16.641Z,9.15
2023-03-01T02:31:05.199Z,8.70
2023-03-01T02:33:37.103Z,9.23
2023-03-01T02:36:07.934Z,8.80
2023-03-01T02:38:36.227Z,9.20
2023-03-01T02:41:05.427Z,9.00
2023-03-01T02:43:33.941Z,9.30
2023-03-01T02:46:08.950Z,8.90
2023-03-01T02:48:46.274Z,8.64
2023-03-01T02:51:35.615Z,8.98
2023-03-01T02:54:21.615Z,9.27
2023-03-01T02:56:49.957Z,9.07
2023-03-01T02:59:19.413Z,8.98
2023-03-01T03:01:47.610Z,8.57
2023-03-01T03:04:18.052Z,9.03
2023-03-01T03:06:46.832Z,9.13
2023-03-01T03:09:16.758Z,9.27
2023-03-01T03:11:45.422Z,8.95
2023-03-01T03:14:14.913Z,8.98
2023-03-01T03:16:43.532Z,9.32
2023-03-01T03:19:11.986Z,9.30
2023-03-01T03:21:39.490Z,8.95
2023-03-01T03:24:13.909Z,9.60
2023-03-01T03:26:41.813Z,8.52
2023-03-01T03:29:09.209Z,9.23
2023-03-01T03:31:36.869Z,9.27
2023-03-01T03:34:04.714Z,9.18
2023-03-01T03:36:33.258Z,9.00
2023-03-01T03:39:00.647Z,8.77
2023-03-01T03:41:28.347Z,9.52
2023-03-01T03:43:55.790Z,8.93
2023-03-01T03:46:23.232Z,8.70
2023-03-01T03:48:51.404Z,9.10
2023-03-01T03:51:19.228Z,9.07
2023-03-01T03:53:46.912Z,9.10
2023-03-01T03:56:14.641Z,9.07
2023-03-01T03:58:42.104Z,9.57
2023-03-01T04:01:09.543Z,9.65
2023-03-01T04:03:37.329Z,9.90
2023-03-01T04:06:07.742Z,10.05
2023-03-01T04:08:35.220Z,9.30
2023-03-01T04:11:24.727Z,9.55
2023-03-01T04:13:53.977Z,10.10
2023-03-01T04:16:22.159Z,9.75
2023-03-01T04:18:49.642Z,9.83
2023-03-01T04:21:17.168Z,9.57
2023-03-01T04:23:44.859Z,10.23
2023-03-01T04:26:12.287Z,9.83
2023-03-01T04:28:41.604Z,10.10
2023-03-01T04:31:15.093Z,10.00
2023-03-01T04:33:52.617Z,9.60
2023-03-01T04:36:23.791Z,9.80
2023-03-01T04:38:51.854Z,9.82
2023-03-01T04:41:21.055Z,10.55
2023-03-01T04:43:49.633Z,10.55
2023-03-01T04:46:19.906Z,10.55
2023-03-01T04:48:50.640Z,10.40
2023-03-01T04:51:19.368Z,10.76
2023-03-01T04:53:47.099Z,10.23
2023-03-01T04:56:15.284Z,10.15
2023-03-01T04:58:43.210Z,10.52
2023-03-01T05:01:18.656Z,10.77
2023-03-01T05:03:48.116Z,10.55
2023-03-01T05:06:16.879Z,10.27
2023-03-01T05:08:44.948Z,9.98
2023-03-01T05:11:13.516Z,10.75
2023-03-01T05:13:42.669Z,10.52
2023-03-01T05:16:13.911Z,10.25
2023-03-01T05:18:41.853Z,10.38
2023-03-01T05:21:11.493Z,9.77
2023-03-01T05:23:39.633Z,10.23
2023-03-01T05:26:16.147Z,9.85
2023-03-01T05:28:53.560Z,9.80
2023-03-01T05:31:21.293Z,9.70
2023-03-01T05:33:48.736Z,9.75
2023-03-01T05:36:16.154Z,10.00
2023-03-01T05:38:45.085Z,9.75
2023-03-01T05:41:16.411Z,9.73
2023-03-01T05:43:46.142Z,9.80
2023-03-01T05:46:16.212Z,9.90
2023-03-01T05:48:44.720Z,9.21
2023-03-01T05:51:13.056Z,9.95
2023-03-01T05:53:40.531Z,9.52
2023-03-01T05:56:08.518Z,9.15
2023-03-01T05:58:35.998Z,9.27
2023-03-01T06:01:03.399Z,8.80
2023-03-01T06:03:31.117Z,9.60
2023-03-01T06:05:59.362Z,9.20
2023-03-01T06:08:28.356Z,8.85
2023-03-01T06:10:57.638Z,8.97
2023-03-01T06:13:25.469Z,8.10
2023-03-01T06:15:53.202Z,8.48
2023-03-01T06:18:21.222Z,8.35
2023-03-01T06:20:56.832Z,8.50
2023-03-01T06:23:25.791Z,8.68
2023-03-01T06:25:53.559Z,8.00
2023-03-01T06:28:21.370Z,8.13
2023-03-01T06:30:50.334Z,8.82
2023-03-01T06:33:19.183Z,8.60
2023-03-01T06:35:49.692Z,8.90
2023-03-01T06:38:20.042Z,8.95
2023-03-01T06:40:53.103Z,8.77
2023-03-01T06:43:21.574Z,9.00
2023-03-01T06:45:49.097Z,9.15
2023-03-01T06:48:16.664Z,8.90
2023-03-01T06:50:44.500Z,9.30
2023-03-01T06:53:12.052Z,9.35
2023-03-01T06:55:39.546Z,9.35
2023-03-01T06:58:07.293Z,9.45
2023-03-01T07:00:34.816Z,9.20
2023-03-01T07:03:03.462Z,9.50
2023-03-01T07:05:32.118Z,9.55
2023-03-01T07:07:59.652Z,11.35
2023-03-01T07:10:27.215Z,12.90
2023-03-01T07:12:58.621Z,10.70
2023-03-01T07:15:27.529Z,10.70
2023-03-01T07:17:55.302Z,12.95
2023-03-01T07:20:25.628Z,12.13
2023-03-01T07:22:54.127Z,13.25
2023-03-01T07:25:21.964Z,11.03
2023-03-01T07:27:53.342Z,11.63
2023-03-01T07:30:21.973Z,9.52
2023-03-01T07:32:50.007Z,9.45
2023-03-01T07:35:17.618Z,10.38
2023-03-01T07:37:45.268Z,10.07
2023-03-01T07:40:13.388Z,13.23
2023-03-01T07:42:40.985Z,10.32
2023-03-01T07:45:09.046Z,10.10
2023-03-01T07:47:37.133Z,9.65
2023-03-01T07:50:05.017Z,9.95
2023-03-01T07:52:32.856Z,9.68
2023-03-01T07:55:00.558Z,10.35
2023-03-01T07:57:27.989Z,10.10
2023-03-01T07:59:55.402Z,10.32
2023-03-01T08:02:23.211Z,10.52
2023-03-01T08:04:50.899Z,11.15
2023-03-01T08:07:18.277Z,10.67
2023-03-01T08:09:45.979Z,9.77
2023-03-01T08:12:13.818Z,10.15
2023-03-01T08:14:41.202Z,15.32
2023-03-01T08:17:08.620Z,18.52
2023-03-01T08:19:36.607Z,14.60
2023-03-01T08:22:04.234Z,11.00
2023-03-01T08:24:31.617Z,10.57
2023-03-01T08:26:59.420Z,9.25
2023-03-01T08:29:26.823Z,9.07
2023-03-01T08:31:54.335Z,8.75
2023-03-01T08:34:22.226Z,8.90
2023-03-01T08:36:51.123Z,8.70
2023-03-01T09:57:12.873Z,8.77
2023-03-01T10:05:18.819Z,8.07
2023-03-01T10:07:56.823Z,11.23
2023-03-01T10:10:30.115Z,9.98
2023-03-01T10:13:05.813Z,9.05
2023-03-01T10:15:40.009Z,7.72
2023-03-01T10:18:18.356Z,8.88
2023-03-01T10:20:59.926Z,8.35
2023-03-01T10:23:29.214Z,15.32
2023-03-01T10:26:18.490Z,10.38
2023-03-01T10:29:11.323Z,8.63
2023-03-01T10:31:50.220Z,7.97
2023-03-01T10:34:21.916Z,8.65
2023-03-01T10:36:52.065Z,8.63
2023-03-01T10:39:21.992Z,9.65
2023-03-01T10:42:02.350Z,11.52
2023-03-01T10:44:43.607Z,11.52
2023-03-01T10:47:29.474Z,10.45
2023-03-01T10:50:02.858Z,9.15
2023-03-01T10:52:36.616Z,8.27
2023-03-01T10:55:28.812Z,8.40
2023-03-01T10:58:15.729Z,9.93
2023-03-01T11:01:01.278Z,8.70
2023-03-01T11:03:39.839Z,9.63
2023-03-01T11:06:22.838Z,8.68
2023-03-01T11:08:51.658Z,8.70
2023-03-01T11:11:32.639Z,8.80
2023-03-01T11:14:27.230Z,9.93
2023-03-01T11:17:06.826Z,9.15
2023-03-01T11:19:34.597Z,9.40
2023-03-01T11:22:15.388Z,8.75
2023-03-01T11:24:46.317Z,11.25
2023-03-01T11:27:21.030Z,8.82
2023-03-01T11:30:14.586Z,10.15
2023-03-01T11:32:44.852Z,9.25
2023-03-01T11:35:19.382Z,11.68
2023-03-01T11:38:00.355Z,7.03
2023-03-01T11:40:50.118Z,8.57
2023-03-01T11:43:25.681Z,12.37
2023-03-01T11:46:20.615Z,8.05
2023-03-01T11:48:59.999Z,8.32
2023-03-01T11:51:55.644Z,8.50
2023-03-01T11:57:01.845Z,8.38
2023-03-01T11:59:29.219Z,10.60
2023-03-01T12:02:06.494Z,10.00
2023-03-01T12:10:22.623Z,10.35
2023-03-01T12:26:18.717Z,7.03
2023-03-01T12:28:54.788Z,7.37
2023-03-01T12:31:45.881Z,7.82
2023-03-01T12:34:30.728Z,7.75
2023-03-01T12:37:10.232Z,7.03
2023-03-01T12:39:48.093Z,7.55
2023-03-01T13:12:57.878Z,6.28
2023-03-01T13:15:25.559Z,6.07
2023-03-01T13:18:12.772Z,6.75
2023-03-01T13:20:43.797Z,7.75
2023-03-01T13:23:20.183Z,6.05
2023-03-01T13:26:14.520Z,6.35
2023-03-01T13:28:44.918Z,7.47
2023-03-01T13:31:18.309Z,6.15
2023-03-01T13:33:52.908Z,7.15
2023-03-01T13:36:30.236Z,6.55
2023-03-01T13:41:44.541Z,6.65
2023-03-01T13:44:25.396Z,7.10
2023-03-01T13:46:55.128Z,6.87
2023-03-01T13:49:24.536Z,6.28
2023-03-01T13:51:52.843Z,6.97
2023-03-01T13:54:30.808Z,6.68
2023-03-01T13:56:59.629Z,6.90
2023-03-01T13:59:30.336Z,6.35
2023-03-01T14:02:02.289Z,7.12
2023-03-01T14:04:36.900Z,6.50
2023-03-01T14:07:19.049Z,5.97
2023-03-01T14:09:53.491Z,5.87
2023-03-01T14:12:46.525Z,6.12
2023-03-01T14:15:26.344Z,6.03
2023-03-01T14:18:05.405Z,7.45
2023-03-01T14:20:38.417Z,6.82
2023-03-01T14:23:12.861Z,5.55
2023-03-01T14:28:27.680Z,10.13
2023-03-01T14:33:30.829Z,11.27
2023-03-01T14:38:39.469Z,6.37
2023-03-01T14:41:10.573Z,6.62
2023-03-01T14:43:40.269Z,7.72
2023-03-01T14:46:34.282Z,6.68
2023-03-01T14:49:18.738Z,5.95
2023-03-01T14:52:06.562Z,5.93
2023-03-01T14:54:44.145Z,5.35
2023-03-01T14:57:17.098Z,8.20
2023-03-01T14:59:46.816Z,5.22
2023-03-01T17:18:01.880Z,20.92
2023-03-01T18:12:32.988Z,26.30
2023-03-01T18:15:00.846Z,24.87
2023-03-01T18:17:29.820Z,26.73
2023-03-01T18:19:58.938Z,30.10
2023-03-01T18:22:27.556Z,28.80
2023-03-01T18:24:55.713Z,28.73
2023-03-01T18:27:26.955Z,29.17
2023-03-01T19:19:33.098Z,32.80
2023-03-01T19:22:06.033Z,30.65
2023-03-01T19:24:38.913Z,23.45
2023-03-01T19:27:08.647Z,21.92
